Главная страница
METAR-TAF:

METAR-TAF

Аэропорты :

Каструп

Копенгаген, Дания

широта: 55-37N, долгота: 012-39E, высота над уровнем моря: 5 м

Текущие метеонаблюдения

Эта сводка был подготовлена 14 минут назад, в 01:50 UTC
Ветер 9 Узел от западный
Температура 2°C
Влажность 87%
Давление 1017 hPa
Видимость 10 км и более

METAR: EKCH 040150Z AUTO 26009KT 9999 NCD 02/00 Q1017 NOSIG

Время: 04:04 (02:04 UTC)

Прогноз

Эта сводка был подготовлена 3 часа и 0 минут назад, в 23:04 UTC
Прогноз действительный с 04-го 00 UTC до 04-го 24 UTC
Ветер 8 Узел от западный
Видимость 10 км и более
Отдельные облака на высоте 2500 фута
временами
С 04-го 13 UTC до 04-го 19 UTC
Видимость: 4000 м
Отдельные облака на высоте 2000 фута, Кучево-дождевые.
ливневые дожди

TAF: EKCH 032304Z 0400/0424 27008KT 9999 SCT025 TEMPO 0413/0419 4000 SHRA SCT020CB

Метеонаблюдения и прогнозы для более 4000 аэропортов (сводки METAR и TAF).

Имеющиеся станции представлены на карте желтыми и красными точками.

Чтобы увидеть название станции, наведите на нее мышь.

Затем щелкните, чтобы увидеть метеонаблюдения и метеопрогнозы.

Управление картой: чтобы увеличить масштаб, щелкните зеленые кнопки с черным крестиком; чтобы уменьшить масштаб, щелкните зеленую кнопку с тире; для просмотра соседних карт щелкайте зеленые стрелки.


METAR-TAF: